createdAt,value
2023-04-26T00:00:27.736Z,20.36
2023-04-26T00:01:27.751Z,20.35
2023-04-26T00:02:28.025Z,20.36
2023-04-26T00:03:27.040Z,20.36
2023-04-26T00:04:27.151Z,20.36
2023-04-26T00:05:27.955Z,20.36
2023-04-26T00:06:27.946Z,20.35
2023-04-26T00:07:27.009Z,20.36
2023-04-26T00:08:28.020Z,20.36
2023-04-26T00:09:27.064Z,20.35
2023-04-26T00:10:28.116Z,20.34
2023-04-26T00:11:27.157Z,20.35
2023-04-26T00:12:27.207Z,20.35
2023-04-26T00:13:28.256Z,20.35
2023-04-26T00:14:28.312Z,20.35
2023-04-26T00:15:28.404Z,20.34
2023-04-26T00:16:28.427Z,20.34
2023-04-26T00:17:28.496Z,20.33
2023-04-26T00:18:27.530Z,20.34
2023-04-26T00:19:28.580Z,20.33
2023-04-26T00:20:27.660Z,20.33
2023-04-26T00:21:27.682Z,20.33
2023-04-26T00:22:27.718Z,20.33
2023-04-26T00:23:27.770Z,20.33
2023-04-26T00:24:27.827Z,20.33
2023-04-26T00:25:27.885Z,20.32
2023-04-26T00:26:28.927Z,20.32
2023-04-26T00:27:28.024Z,20.32
2023-04-26T00:28:29.043Z,20.32
2023-04-26T00:29:28.113Z,20.31
2023-04-26T00:30:28.197Z,20.32
2023-04-26T00:31:28.264Z,20.31
2023-04-26T00:32:29.443Z,20.31
2023-04-26T00:33:29.332Z,20.31
2023-04-26T00:34:28.413Z,20.30
2023-04-26T00:35:29.446Z,20.30
2023-04-26T00:36:29.496Z,20.30
2023-04-26T00:37:29.561Z,20.30
2023-04-26T00:38:28.860Z,20.30
2023-04-26T00:39:29.669Z,20.30
2023-04-26T00:40:28.729Z,20.29
2023-04-26T00:41:28.795Z,20.30
2023-04-26T00:42:28.855Z,20.30
2023-04-26T00:43:29.905Z,20.29
2023-04-26T00:44:29.951Z,20.29
2023-04-26T00:45:29.047Z,20.29
2023-04-26T00:46:30.098Z,20.29
2023-04-26T00:47:30.182Z,20.29
2023-04-26T00:48:30.193Z,20.29
2023-04-26T00:49:29.258Z,20.28
2023-04-26T00:50:29.288Z,20.29
2023-04-26T00:51:29.351Z,20.28
2023-04-26T00:52:30.431Z,20.28
2023-04-26T00:53:30.488Z,20.28
2023-04-26T00:54:29.547Z,20.28
2023-04-26T00:55:30.623Z,20.28
2023-04-26T00:56:30.744Z,20.28
2023-04-26T00:57:29.719Z,20.28
2023-04-26T00:58:30.778Z,20.28
2023-04-26T00:59:30.818Z,20.28
2023-04-26T01:00:30.892Z,20.28
2023-04-26T01:01:30.995Z,20.28
2023-04-26T01:02:30.124Z,20.27
2023-04-26T01:03:30.216Z,20.28
2023-04-26T01:04:31.157Z,20.27
2023-04-26T01:05:30.178Z,20.27
2023-04-26T01:06:31.220Z,20.27
2023-04-26T01:07:31.278Z,20.27
2023-04-26T01:08:30.355Z,20.27
2023-04-26T01:09:31.453Z,20.26
2023-04-26T01:10:32.259Z,20.26
2023-04-26T01:11:31.792Z,20.26
2023-04-26T01:12:31.591Z,20.26
2023-04-26T01:13:31.641Z,20.26
2023-04-26T01:14:30.699Z,20.26
2023-04-26T01:15:31.753Z,20.25
2023-04-26T01:16:31.863Z,20.25
2023-04-26T01:17:31.902Z,20.25
2023-04-26T01:18:31.969Z,20.25
2023-04-26T01:19:31.990Z,20.26
2023-04-26T01:20:31.035Z,20.25
2023-04-26T01:21:32.104Z,20.25
2023-04-26T01:22:32.165Z,20.25
2023-04-26T01:23:31.217Z,20.25
2023-04-26T01:24:31.265Z,20.24
2023-04-26T01:25:31.330Z,20.24
2023-04-26T01:26:31.384Z,20.24
2023-04-26T01:27:31.490Z,20.23
2023-04-26T01:28:31.512Z,20.23
2023-04-26T01:29:31.531Z,20.23
2023-04-26T01:30:32.636Z,20.23
2023-04-26T01:31:31.753Z,20.22
2023-04-26T01:32:32.765Z,20.23
2023-04-26T01:33:31.757Z,20.23
2023-04-26T01:34:32.839Z,20.23
2023-04-26T01:35:32.888Z,20.22
2023-04-26T01:36:31.927Z,20.22
2023-04-26T01:37:31.996Z,20.21
2023-04-26T01:38:33.052Z,20.21
2023-04-26T01:39:33.118Z,20.22
2023-04-26T01:40:32.193Z,20.22
2023-04-26T01:41:33.228Z,20.22
2023-04-26T01:42:32.302Z,20.22
2023-04-26T01:43:33.329Z,20.23
2023-04-26T01:44:33.411Z,20.21
2023-04-26T01:45:33.506Z,20.21
2023-04-26T01:46:32.629Z,20.22
2023-04-26T01:47:33.614Z,20.21
2023-04-26T01:48:33.647Z,20.21
2023-04-26T01:49:33.705Z,20.20
2023-04-26T01:50:33.801Z,20.21
2023-04-26T01:51:33.848Z,20.21
2023-04-26T01:52:33.895Z,20.21
2023-04-26T01:53:33.949Z,20.21
2023-04-26T01:54:33.000Z,20.20
2023-04-26T01:55:34.137Z,20.20
2023-04-26T01:56:33.204Z,20.20
2023-04-26T01:57:33.210Z,20.19
2023-04-26T01:58:33.274Z,20.19
2023-04-26T01:59:34.293Z,20.19
2023-04-26T02:00:33.343Z,20.19
2023-04-26T02:01:34.482Z,20.20
2023-04-26T02:02:34.545Z,20.20
2023-04-26T02:03:34.597Z,20.20
2023-04-26T02:04:34.632Z,20.19
2023-04-26T02:05:33.651Z,20.19
2023-04-26T02:06:34.736Z,20.19
2023-04-26T02:07:34.761Z,20.19
2023-04-26T02:08:34.828Z,20.19
2023-04-26T02:09:34.913Z,20.20
2023-04-26T02:10:34.941Z,20.19
2023-04-26T02:11:34.983Z,20.18
2023-04-26T02:12:35.074Z,20.18
2023-04-26T02:13:35.161Z,20.18
2023-04-26T02:14:35.185Z,20.17
2023-04-26T02:15:35.247Z,20.18
2023-04-26T02:16:35.376Z,20.17
2023-04-26T02:17:34.366Z,20.17
2023-04-26T02:18:34.409Z,20.17
2023-04-26T02:19:35.462Z,20.17
2023-04-26T02:20:35.527Z,20.17
2023-04-26T02:21:35.610Z,20.17
2023-04-26T02:22:35.670Z,20.17
2023-04-26T02:23:34.701Z,20.17
2023-04-26T02:24:34.737Z,20.16
2023-04-26T02:25:35.798Z,20.16
2023-04-26T02:26:35.866Z,20.15
2023-04-26T02:27:34.898Z,20.15
2023-04-26T02:28:35.966Z,20.16
2023-04-26T02:30:35.009Z,20.15
2023-04-26T02:31:35.065Z,20.15
2023-04-26T02:32:36.039Z,20.15
2023-04-26T02:33:36.073Z,20.14
2023-04-26T02:34:34.978Z,20.15
2023-04-26T02:35:34.977Z,20.14
2023-04-26T02:36:34.975Z,20.14
2023-04-26T02:37:35.962Z,20.14
2023-04-26T02:38:36.027Z,20.14
2023-04-26T02:39:34.962Z,20.15
2023-04-26T02:40:34.955Z,20.14
2023-04-26T02:41:35.991Z,20.14
2023-04-26T02:42:34.966Z,20.14
2023-04-26T02:43:35.931Z,20.14
2023-04-26T02:44:35.918Z,20.14
2023-04-26T02:45:35.919Z,20.13
2023-04-26T02:46:35.956Z,20.14
2023-04-26T02:47:34.937Z,20.14
2023-04-26T02:48:34.905Z,20.13
2023-04-26T02:49:35.881Z,20.13
2023-04-26T02:50:35.881Z,20.14
2023-04-26T02:51:35.910Z,20.14
2023-04-26T02:52:35.868Z,20.14
2023-04-26T02:53:34.941Z,20.13
2023-04-26T02:54:34.905Z,20.13
2023-04-26T02:55:34.870Z,20.12
2023-04-26T02:56:34.900Z,20.12
2023-04-26T02:57:36.033Z,20.12
2023-04-26T02:58:35.011Z,20.13
2023-04-26T02:59:35.061Z,20.12
2023-04-26T03:00:35.146Z,20.12
2023-04-26T03:01:35.287Z,20.13
2023-04-26T03:02:36.490Z,20.12
2023-04-26T03:03:36.371Z,20.11
2023-04-26T03:04:35.329Z,20.11
2023-04-26T03:05:36.400Z,20.11
2023-04-26T03:06:35.476Z,20.10
2023-04-26T03:07:35.494Z,20.11
2023-04-26T03:08:36.567Z,20.11
2023-04-26T03:09:36.599Z,20.11
2023-04-26T03:10:36.671Z,20.10
2023-04-26T03:11:36.697Z,20.10
2023-04-26T03:12:36.754Z,20.10
2023-04-26T03:13:36.811Z,20.10
2023-04-26T03:14:36.868Z,20.09
2023-04-26T03:15:35.927Z,20.09
2023-04-26T03:16:36.062Z,20.10
2023-04-26T03:17:37.065Z,20.09
2023-04-26T03:18:37.086Z,20.10
2023-04-26T03:19:37.146Z,20.10
2023-04-26T03:20:36.208Z,20.10
2023-04-26T03:21:37.292Z,20.11
2023-04-26T03:22:37.318Z,20.12
2023-04-26T03:23:37.384Z,20.14
2023-04-26T03:24:36.442Z,20.14
2023-04-26T03:25:37.467Z,20.15
2023-04-26T03:26:37.602Z,20.15
2023-04-26T03:27:37.584Z,20.17
2023-04-26T03:28:37.674Z,20.18
2023-04-26T03:29:37.697Z,20.20
2023-04-26T03:30:36.774Z,20.21
2023-04-26T03:31:36.860Z,20.22
2023-04-26T03:32:36.934Z,20.23
2023-04-26T03:33:37.979Z,20.24
2023-04-26T03:34:38.014Z,20.25
2023-04-26T03:35:38.063Z,20.26
2023-04-26T03:36:37.162Z,20.27
2023-04-26T03:37:37.188Z,20.28
2023-04-26T03:38:38.241Z,20.28
2023-04-26T03:39:37.300Z,20.29
2023-04-26T03:40:38.360Z,20.30
2023-04-26T03:41:38.431Z,20.30
2023-04-26T03:42:38.478Z,20.32
2023-04-26T03:43:38.530Z,20.33
2023-04-26T03:44:37.572Z,20.33
2023-04-26T03:45:37.723Z,20.33
2023-04-26T03:46:38.675Z,20.35
2023-04-26T03:47:37.788Z,20.35
2023-04-26T03:48:37.728Z,20.36
2023-04-26T03:49:37.767Z,20.36
2023-04-26T03:50:38.853Z,20.37
2023-04-26T03:51:38.859Z,20.38
2023-04-26T03:52:37.905Z,20.38
2023-04-26T03:53:38.943Z,20.38
2023-04-26T03:54:38.967Z,20.39
2023-04-26T03:55:39.011Z,20.39
2023-04-26T03:56:39.076Z,20.39
2023-04-26T03:57:39.124Z,20.39
2023-04-26T03:58:39.175Z,20.39
2023-04-26T03:59:38.183Z,20.40
2023-04-26T04:00:39.235Z,20.40
2023-04-26T04:01:39.274Z,20.41
2023-04-26T04:02:39.325Z,20.40
2023-04-26T04:04:38.441Z,20.41
2023-04-26T04:05:39.537Z,20.41
2023-04-26T04:06:38.311Z,20.41
2023-04-26T04:07:38.303Z,20.42
2023-04-26T04:08:39.313Z,20.42
2023-04-26T04:09:38.336Z,20.42
2023-04-26T04:10:39.339Z,20.42
2023-04-26T04:11:38.358Z,20.42
2023-04-26T04:12:39.375Z,20.43
2023-04-26T04:13:39.400Z,20.43
2023-04-26T04:14:38.429Z,20.43
2023-04-26T04:15:38.429Z,20.43
2023-04-26T04:16:38.424Z,20.43
2023-04-26T04:17:38.881Z,20.43
2023-04-26T04:18:38.430Z,20.43
2023-04-26T04:19:39.451Z,20.43
2023-04-26T04:20:39.446Z,20.43
2023-04-26T04:21:38.445Z,20.44
2023-04-26T04:22:39.465Z,20.44
2023-04-26T04:23:39.450Z,20.43
2023-04-26T04:24:39.476Z,20.43
2023-04-26T04:25:38.506Z,20.44
2023-04-26T04:26:39.509Z,20.44
2023-04-26T04:27:38.531Z,20.44
2023-04-26T04:28:38.550Z,20.44
2023-04-26T04:29:39.548Z,20.44
2023-04-26T04:30:38.598Z,20.44
2023-04-26T04:31:39.646Z,20.44
2023-04-26T04:32:38.610Z,20.44
2023-04-26T04:33:38.594Z,20.45
2023-04-26T04:34:38.623Z,20.45
2023-04-26T04:35:38.634Z,20.45
2023-04-26T04:36:38.632Z,20.45
2023-04-26T04:37:39.670Z,20.45
2023-04-26T04:38:38.675Z,20.45
2023-04-26T04:39:39.661Z,20.45
2023-04-26T04:40:39.686Z,20.45
2023-04-26T04:41:38.680Z,20.45
2023-04-26T04:42:39.700Z,20.46
2023-04-26T04:43:39.691Z,20.46
2023-04-26T04:44:38.708Z,20.46
2023-04-26T04:45:39.715Z,20.46
2023-04-26T04:46:39.757Z,20.46
2023-04-26T04:47:39.840Z,20.47
2023-04-26T04:48:39.757Z,20.47
2023-04-26T04:49:39.774Z,20.47
2023-04-26T04:50:39.807Z,20.48
2023-04-26T04:51:39.787Z,20.48
2023-04-26T04:52:39.816Z,20.47
2023-04-26T04:53:39.850Z,20.49
2023-04-26T04:54:39.828Z,20.48
2023-04-26T04:55:39.861Z,20.48
2023-04-26T04:56:38.865Z,20.48
2023-04-26T04:58:38.868Z,20.49
2023-04-26T04:59:38.875Z,20.49
2023-04-26T05:00:39.871Z,20.50
2023-04-26T05:01:39.082Z,20.50
2023-04-26T05:02:40.069Z,20.50
2023-04-26T05:03:39.952Z,20.51
2023-04-26T05:04:40.084Z,20.50
2023-04-26T05:05:39.921Z,20.51
2023-04-26T05:06:39.927Z,20.51
2023-04-26T05:07:39.952Z,20.51
2023-04-26T05:08:39.892Z,20.52
2023-04-26T05:09:38.904Z,20.52
2023-04-26T05:10:38.917Z,20.51
2023-04-26T05:11:39.954Z,20.52
2023-04-26T05:12:39.964Z,20.52
2023-04-26T05:13:39.979Z,20.52
2023-04-26T05:14:38.965Z,20.52
2023-04-26T05:15:38.934Z,20.52
2023-04-26T05:16:40.029Z,20.52
2023-04-26T05:17:39.013Z,20.52
2023-04-26T05:18:40.153Z,20.53
2023-04-26T05:19:39.980Z,20.52
2023-04-26T05:20:39.971Z,20.52
2023-04-26T05:21:38.957Z,20.53
2023-04-26T05:22:39.989Z,20.53
2023-04-26T05:23:39.993Z,20.53
2023-04-26T05:24:39.980Z,20.53
2023-04-26T05:25:40.007Z,20.53
2023-04-26T05:26:38.990Z,20.53
2023-04-26T05:27:40.007Z,20.53
2023-04-26T05:28:40.015Z,20.53
2023-04-26T05:29:40.061Z,20.53
2023-04-26T05:30:40.032Z,20.52
2023-04-26T05:31:39.080Z,20.53
2023-04-26T05:32:40.096Z,20.54
2023-04-26T05:33:40.053Z,20.54
2023-04-26T05:34:40.259Z,20.54
2023-04-26T05:35:40.582Z,20.55
2023-04-26T05:36:39.102Z,20.55
2023-04-26T05:37:39.148Z,20.55
2023-04-26T05:38:40.134Z,20.55
2023-04-26T05:39:39.149Z,20.56
2023-04-26T05:40:39.228Z,20.57
2023-04-26T05:41:39.162Z,20.58
2023-04-26T05:42:40.165Z,20.59
2023-04-26T05:43:40.840Z,20.60
2023-04-26T05:44:40.325Z,20.61
2023-04-26T05:45:40.232Z,20.63
2023-04-26T05:46:39.274Z,20.65
2023-04-26T05:47:41.182Z,20.65
2023-04-26T05:48:40.812Z,20.66
2023-04-26T05:49:40.687Z,20.68
2023-04-26T05:50:40.146Z,20.70
2023-04-26T05:51:40.571Z,20.71
2023-04-26T05:52:41.577Z,20.71
2023-04-26T05:53:39.448Z,20.72
2023-04-26T05:54:40.666Z,20.74
2023-04-26T05:55:40.685Z,20.78
2023-04-26T05:56:39.663Z,20.85
2023-04-26T05:57:41.006Z,20.92
2023-04-26T05:58:39.588Z,21.00
2023-04-26T05:59:40.653Z,21.05
2023-04-26T06:00:39.772Z,21.11
2023-04-26T06:01:39.844Z,21.15
2023-04-26T06:02:40.720Z,21.25
2023-04-26T06:03:39.962Z,21.49
2023-04-26T06:04:40.728Z,21.59
2023-04-26T06:05:39.764Z,21.61
2023-04-26T06:06:42.124Z,21.63
2023-04-26T06:07:41.083Z,21.66
2023-04-26T06:08:40.843Z,21.68
2023-04-26T06:09:40.791Z,21.70
2023-04-26T06:10:39.795Z,21.72
2023-04-26T06:11:40.852Z,21.73
2023-04-26T06:12:40.954Z,21.75
2023-04-26T06:13:40.832Z,21.76
2023-04-26T06:14:40.818Z,21.78
2023-04-26T06:15:40.837Z,21.79
2023-04-26T06:16:42.368Z,21.82
2023-04-26T06:17:40.819Z,21.84
2023-04-26T06:18:40.896Z,21.85
2023-04-26T06:19:40.813Z,21.90
2023-04-26T06:20:39.786Z,21.92
2023-04-26T06:21:40.869Z,21.95
2023-04-26T06:22:40.817Z,21.97
2023-04-26T06:23:39.782Z,22.00
2023-04-26T06:24:39.825Z,22.04
2023-04-26T06:25:40.748Z,22.07
2023-04-26T06:26:40.752Z,22.09
2023-04-26T06:27:40.808Z,22.11
2023-04-26T06:28:42.315Z,22.12
2023-04-26T06:29:41.060Z,22.14
2023-04-26T06:30:41.034Z,22.17
2023-04-26T06:31:41.077Z,22.19
2023-04-26T06:32:41.152Z,22.23
2023-04-26T06:33:41.172Z,22.24
2023-04-26T06:34:41.178Z,22.27
2023-04-26T06:35:40.236Z,22.30
2023-04-26T06:36:40.294Z,22.32
2023-04-26T06:37:41.330Z,22.33
2023-04-26T06:38:41.364Z,22.35
2023-04-26T06:39:40.405Z,22.37
2023-04-26T06:40:40.440Z,22.38
2023-04-26T06:41:41.499Z,22.39
2023-04-26T06:42:41.693Z,22.41
2023-04-26T06:43:41.557Z,22.43
2023-04-26T06:44:41.847Z,22.46
2023-04-26T06:45:43.320Z,22.48
2023-04-26T06:46:41.652Z,22.50
2023-04-26T06:47:41.665Z,22.52
2023-04-26T06:48:41.636Z,22.53
2023-04-26T06:49:41.652Z,22.54
2023-04-26T06:50:41.718Z,22.56
2023-04-26T06:51:40.636Z,22.58
2023-04-26T06:52:41.598Z,22.61
2023-04-26T06:53:41.832Z,22.63
2023-04-26T06:54:53.733Z,22.66
2023-04-26T06:55:41.605Z,22.68
2023-04-26T06:56:40.575Z,22.69
2023-04-26T06:57:41.910Z,22.71
2023-04-26T06:58:41.771Z,22.72
2023-04-26T06:59:41.540Z,22.69
2023-04-26T07:00:41.556Z,22.66
2023-04-26T07:01:41.765Z,22.65
2023-04-26T07:02:41.676Z,22.60
2023-04-26T07:03:41.724Z,22.54
2023-04-26T07:04:40.684Z,22.45
2023-04-26T07:05:41.703Z,22.38
2023-04-26T07:06:41.576Z,22.27
2023-04-26T07:07:42.441Z,22.21
2023-04-26T07:08:41.501Z,22.20
2023-04-26T07:09:41.500Z,22.22
2023-04-26T07:10:41.520Z,22.24
2023-04-26T07:11:41.467Z,22.27
2023-04-26T07:12:41.546Z,22.30
2023-04-26T07:13:41.477Z,22.32
2023-04-26T07:14:41.452Z,22.34
2023-04-26T07:15:41.548Z,22.37
2023-04-26T07:16:41.619Z,22.40
2023-04-26T07:17:41.593Z,22.42
2023-04-26T07:18:41.604Z,22.45
2023-04-26T07:19:41.700Z,22.47
2023-04-26T07:20:42.145Z,22.48
2023-04-26T07:21:40.742Z,22.51
2023-04-26T07:22:41.830Z,22.53
2023-04-26T07:23:40.793Z,22.56
2023-04-26T07:24:40.857Z,22.57
2023-04-26T07:25:40.942Z,22.59
2023-04-26T07:26:41.953Z,22.61
2023-04-26T07:27:40.948Z,22.62
2023-04-26T07:28:42.085Z,22.63
2023-04-26T07:29:42.006Z,22.64
2023-04-26T07:30:42.058Z,22.66
2023-04-26T07:31:41.085Z,22.69
2023-04-26T07:32:41.252Z,22.71
2023-04-26T07:33:41.260Z,22.73
2023-04-26T07:34:42.151Z,22.75
2023-04-26T07:35:42.164Z,22.76
2023-04-26T07:36:42.213Z,22.78
2023-04-26T07:37:42.224Z,22.78
2023-04-26T07:38:41.228Z,22.79
2023-04-26T07:39:42.295Z,22.80
2023-04-26T07:40:42.276Z,22.81
2023-04-26T07:41:43.877Z,22.83
2023-04-26T07:42:41.406Z,22.85
2023-04-26T07:43:42.279Z,22.87
2023-04-26T07:44:42.268Z,22.88
2023-04-26T07:45:42.403Z,22.95
2023-04-26T07:46:42.253Z,22.98
2023-04-26T07:47:42.251Z,23.01
2023-04-26T07:48:43.233Z,23.00
2023-04-26T07:49:41.238Z,23.00
2023-04-26T07:50:42.222Z,22.99
2023-04-26T07:51:42.209Z,22.97
2023-04-26T07:52:42.202Z,22.93
2023-04-26T07:53:42.258Z,22.88
2023-04-26T07:54:42.202Z,22.84
2023-04-26T07:55:42.192Z,22.77
2023-04-26T07:56:42.169Z,22.74
2023-04-26T07:57:41.171Z,22.69
2023-04-26T07:58:41.248Z,22.66
2023-04-26T07:59:42.162Z,22.63
2023-04-26T08:00:41.162Z,22.60
2023-04-26T08:01:41.181Z,22.58
2023-04-26T08:02:44.458Z,22.56
2023-04-26T08:03:42.435Z,22.54
2023-04-26T08:04:41.245Z,22.52
2023-04-26T08:05:42.289Z,22.51
2023-04-26T08:06:41.169Z,22.49
2023-04-26T08:07:42.104Z,22.48
2023-04-26T08:08:42.083Z,22.48
2023-04-26T08:09:42.085Z,22.48
2023-04-26T08:10:42.069Z,22.48
2023-04-26T08:11:41.092Z,22.49
2023-04-26T08:12:41.066Z,22.49
2023-04-26T08:13:42.051Z,22.47
2023-04-26T08:14:42.398Z,22.46
2023-04-26T08:15:41.064Z,22.45
2023-04-26T08:16:42.097Z,22.44
2023-04-26T08:17:42.123Z,22.44
2023-04-26T08:18:43.389Z,22.45
2023-04-26T08:19:42.044Z,22.44
2023-04-26T08:20:42.020Z,22.43
2023-04-26T08:21:42.145Z,22.43
2023-04-26T08:22:42.040Z,22.43
2023-04-26T08:23:42.014Z,22.42
2023-04-26T08:24:41.005Z,22.43
2023-04-26T08:25:41.964Z,22.41
2023-04-26T08:26:41.961Z,22.40
2023-04-26T08:27:41.961Z,22.39
2023-04-26T08:28:41.962Z,22.38
2023-04-26T08:29:41.973Z,22.36
2023-04-26T08:30:41.253Z,22.36
2023-04-26T08:31:41.999Z,22.37
2023-04-26T08:32:41.970Z,22.37
2023-04-26T08:33:40.958Z,22.38
2023-04-26T08:34:40.925Z,22.40
2023-04-26T08:35:40.950Z,22.41
2023-04-26T08:36:41.903Z,22.42
2023-04-26T08:37:41.898Z,22.43
2023-04-26T08:38:40.888Z,22.44
2023-04-26T08:39:41.912Z,22.46
2023-04-26T08:40:41.866Z,22.48
2023-04-26T08:41:40.866Z,22.50
2023-04-26T08:42:41.882Z,22.52
2023-04-26T08:43:42.262Z,22.54
2023-04-26T08:44:41.898Z,22.57
2023-04-26T08:45:41.854Z,22.59
2023-04-26T08:46:42.149Z,22.61
2023-04-26T08:47:41.955Z,22.64
2023-04-26T08:48:40.938Z,22.64
2023-04-26T08:49:41.966Z,22.65
2023-04-26T08:50:40.971Z,22.65
2023-04-26T08:51:41.999Z,22.67
2023-04-26T08:52:42.054Z,22.69
2023-04-26T08:53:42.132Z,22.72
2023-04-26T08:54:41.115Z,22.73
2023-04-26T08:55:41.137Z,22.71
2023-04-26T08:56:42.272Z,22.73
2023-04-26T08:57:42.199Z,22.74
2023-04-26T08:58:41.303Z,22.74
2023-04-26T08:59:42.259Z,22.74
2023-04-26T09:00:41.301Z,22.74
2023-04-26T09:01:42.420Z,22.73
2023-04-26T09:02:42.643Z,22.74
2023-04-26T09:03:41.423Z,22.74
2023-04-26T09:04:42.467Z,22.74
2023-04-26T09:05:42.394Z,22.73
2023-04-26T09:06:42.381Z,22.74
2023-04-26T09:07:42.365Z,22.74
2023-04-26T09:08:42.756Z,22.75
2023-04-26T09:09:42.483Z,22.75
2023-04-26T09:10:41.412Z,22.76
2023-04-26T09:11:41.454Z,22.75
2023-04-26T09:12:42.489Z,22.76
2023-04-26T09:13:42.434Z,22.75
2023-04-26T09:14:42.462Z,22.75
2023-04-26T09:15:42.513Z,22.76
2023-04-26T09:16:41.568Z,22.76
2023-04-26T09:17:41.796Z,22.76
2023-04-26T09:18:41.762Z,22.76
2023-04-26T09:19:42.504Z,22.76
2023-04-26T09:20:42.553Z,22.76
2023-04-26T09:21:42.559Z,22.76
2023-04-26T09:22:42.552Z,22.77
2023-04-26T09:23:42.747Z,22.79
2023-04-26T09:24:42.641Z,22.79
2023-04-26T09:25:41.644Z,22.80
2023-04-26T09:26:42.608Z,22.77
2023-04-26T09:27:42.683Z,22.47
2023-04-26T09:28:42.770Z,22.20
2023-04-26T09:29:42.747Z,21.92
2023-04-26T09:30:41.887Z,21.78
2023-04-26T09:31:42.836Z,21.72
2023-04-26T09:32:41.793Z,21.76
2023-04-26T09:33:42.785Z,21.78
2023-04-26T09:34:42.913Z,21.83
2023-04-26T09:35:42.846Z,21.86
2023-04-26T09:36:42.820Z,21.92
2023-04-26T09:37:50.964Z,21.91
2023-04-26T09:38:42.834Z,21.92
2023-04-26T09:39:42.798Z,21.99
2023-04-26T09:40:42.789Z,22.07
2023-04-26T09:41:42.774Z,22.15
2023-04-26T09:42:42.804Z,22.27
2023-04-26T09:43:42.817Z,22.32
2023-04-26T09:44:41.735Z,22.38
2023-04-26T09:45:42.781Z,22.41
2023-04-26T09:46:41.836Z,22.45
2023-04-26T09:47:42.911Z,22.44
2023-04-26T09:48:42.832Z,21.99
2023-04-26T09:49:42.736Z,21.97
2023-04-26T09:50:43.130Z,21.96
2023-04-26T09:51:42.836Z,22.01
2023-04-26T09:52:42.908Z,22.13
2023-04-26T09:53:42.971Z,22.24
2023-04-26T09:54:42.016Z,22.38
2023-04-26T09:55:42.097Z,22.49
2023-04-26T09:56:43.204Z,22.60
2023-04-26T09:57:43.170Z,22.69
2023-04-26T09:58:42.401Z,22.79
2023-04-26T09:59:43.210Z,22.87
2023-04-26T10:00:43.245Z,22.95
2023-04-26T10:01:43.277Z,23.00
2023-04-26T10:02:43.322Z,23.05
2023-04-26T10:03:42.594Z,23.07
2023-04-26T10:04:42.269Z,23.13
2023-04-26T10:05:43.275Z,23.13
2023-04-26T10:06:43.336Z,23.14
2023-04-26T10:07:43.315Z,23.17
2023-04-26T10:08:43.391Z,23.23
2023-04-26T10:09:43.442Z,23.29
2023-04-26T10:10:43.487Z,23.37
2023-04-26T10:11:43.553Z,23.42
2023-04-26T10:12:43.589Z,23.48
2023-04-26T10:13:42.683Z,23.52
2023-04-26T10:14:42.653Z,23.52
2023-04-26T10:15:43.665Z,23.53
2023-04-26T10:16:43.728Z,23.56
2023-04-26T10:17:42.798Z,23.61
2023-04-26T10:18:43.813Z,23.66
2023-04-26T10:19:42.894Z,23.72
2023-04-26T10:20:42.845Z,23.78
2023-04-26T10:21:42.872Z,23.84
2023-04-26T10:22:42.916Z,23.88
2023-04-26T10:23:43.877Z,23.88
2023-04-26T10:24:43.893Z,23.95
2023-04-26T10:25:42.953Z,24.05
2023-04-26T10:26:42.954Z,24.09
2023-04-26T10:27:42.977Z,24.10
2023-04-26T10:28:42.985Z,24.10
2023-04-26T10:29:43.945Z,24.09
2023-04-26T10:30:42.969Z,24.08
2023-04-26T10:31:44.029Z,24.07
2023-04-26T10:32:44.051Z,24.06
2023-04-26T10:33:42.987Z,24.03
2023-04-26T10:34:43.027Z,24.03
2023-04-26T10:35:43.989Z,24.02
2023-04-26T10:36:43.990Z,24.04
2023-04-26T10:37:43.081Z,24.07
2023-04-26T10:38:44.063Z,24.09
2023-04-26T10:39:43.036Z,24.14
2023-04-26T10:40:43.033Z,24.15
2023-04-26T10:41:44.126Z,24.09
2023-04-26T10:42:43.048Z,24.05
2023-04-26T10:43:43.045Z,24.00
2023-04-26T10:44:43.067Z,23.96
2023-04-26T10:45:43.192Z,23.89
2023-04-26T10:46:44.258Z,23.83
2023-04-26T10:47:43.156Z,23.78
2023-04-26T10:48:44.339Z,23.72
2023-04-26T10:49:44.168Z,23.70
2023-04-26T10:50:44.188Z,23.69
2023-04-26T10:51:43.239Z,23.67
2023-04-26T10:52:44.269Z,23.66
2023-04-26T10:53:43.302Z,23.65
2023-04-26T10:54:43.400Z,23.63
2023-04-26T10:55:44.420Z,23.60
2023-04-26T10:56:44.439Z,23.58
2023-04-26T10:57:44.535Z,23.56
2023-04-26T10:58:43.524Z,23.56
2023-04-26T10:59:54.274Z,23.55
2023-04-26T11:00:44.610Z,23.53
2023-04-26T11:01:43.612Z,23.51
2023-04-26T11:02:43.606Z,23.51
2023-04-26T11:03:44.757Z,23.50
2023-04-26T11:04:44.679Z,23.51
2023-04-26T11:05:44.568Z,23.52
2023-04-26T11:06:44.547Z,23.52
2023-04-26T11:07:44.556Z,23.51
2023-04-26T11:08:44.725Z,23.51
2023-04-26T11:09:44.544Z,23.53
2023-04-26T11:10:44.604Z,23.54
2023-04-26T11:11:43.490Z,23.56
2023-04-26T11:12:44.508Z,23.58
2023-04-26T11:13:43.514Z,23.59
2023-04-26T11:14:44.528Z,23.58
2023-04-26T11:15:43.495Z,23.59
2023-04-26T11:16:43.513Z,23.60
2023-04-26T11:17:44.457Z,23.61
2023-04-26T11:18:43.466Z,23.62
2023-04-26T11:19:43.446Z,23.64
2023-04-26T11:20:44.665Z,23.64
2023-04-26T11:21:43.464Z,23.67
2023-04-26T11:22:44.422Z,23.68
2023-04-26T11:23:44.453Z,23.68
2023-04-26T11:24:44.466Z,23.68
2023-04-26T11:25:44.462Z,23.67
2023-04-26T11:26:43.433Z,23.67
2023-04-26T11:27:43.471Z,23.66
2023-04-26T11:28:43.579Z,23.67
2023-04-26T11:29:44.598Z,23.67
2023-04-26T11:30:44.565Z,23.68
2023-04-26T11:31:44.678Z,23.69
2023-04-26T11:32:43.686Z,23.71
2023-04-26T11:33:44.838Z,23.69
2023-04-26T11:34:44.779Z,23.71
2023-04-26T11:35:44.786Z,23.76
2023-04-26T11:36:44.808Z,23.84
2023-04-26T11:37:43.873Z,23.88
2023-04-26T11:38:44.938Z,23.88
2023-04-26T11:39:43.907Z,23.88
2023-04-26T11:40:44.949Z,23.87
2023-04-26T11:41:44.962Z,23.87
2023-04-26T11:42:43.969Z,23.86
2023-04-26T11:43:45.017Z,23.85
2023-04-26T11:44:45.127Z,23.83
2023-04-26T11:45:45.010Z,23.82
2023-04-26T11:46:44.045Z,23.83
2023-04-26T11:47:45.359Z,23.81
2023-04-26T11:48:44.051Z,23.81
2023-04-26T11:49:45.066Z,23.79
2023-04-26T11:50:44.160Z,23.78
2023-04-26T11:51:44.273Z,23.78
2023-04-26T11:52:44.154Z,23.80
2023-04-26T11:53:44.233Z,23.80
2023-04-26T11:54:45.156Z,23.81
2023-04-26T11:55:44.158Z,23.80
2023-04-26T11:56:45.125Z,23.79
2023-04-26T11:57:44.171Z,23.80
2023-04-26T11:58:45.153Z,23.79
2023-04-26T11:59:45.208Z,23.79
2023-04-26T12:00:45.250Z,23.81
2023-04-26T12:01:44.218Z,23.81
2023-04-26T12:02:44.252Z,23.80
2023-04-26T12:03:44.430Z,23.81
2023-04-26T12:04:44.479Z,23.80
2023-04-26T12:05:45.301Z,23.80
2023-04-26T12:06:45.270Z,23.81
2023-04-26T12:07:45.268Z,23.81
2023-04-26T12:08:45.292Z,23.81
2023-04-26T12:09:45.321Z,23.80
2023-04-26T12:10:44.322Z,23.80
2023-04-26T12:11:44.340Z,23.82
2023-04-26T12:12:45.369Z,23.81
2023-04-26T12:13:45.431Z,23.81
2023-04-26T12:14:44.409Z,23.83
2023-04-26T12:15:45.454Z,23.82
2023-04-26T12:16:45.620Z,23.83
2023-04-26T12:17:44.493Z,23.83
2023-04-26T12:18:44.442Z,23.83
2023-04-26T12:19:44.460Z,23.84
2023-04-26T12:20:44.480Z,23.82
2023-04-26T12:21:45.494Z,23.83
2023-04-26T12:22:44.492Z,23.83
2023-04-26T12:23:44.524Z,23.83
2023-04-26T12:24:44.706Z,23.83
2023-04-26T12:25:45.526Z,23.84
2023-04-26T12:26:45.866Z,23.79
2023-04-26T12:27:44.501Z,23.75
2023-04-26T12:28:44.487Z,23.76
2023-04-26T12:29:45.860Z,23.76
2023-04-26T12:30:45.460Z,23.72
2023-04-26T12:31:45.522Z,23.71
2023-04-26T12:32:45.545Z,23.71
2023-04-26T12:33:44.439Z,23.71
2023-04-26T12:34:45.422Z,23.71
2023-04-26T12:35:45.415Z,23.71
2023-04-26T12:36:45.425Z,23.71
2023-04-26T12:37:45.400Z,23.70
2023-04-26T12:38:44.399Z,23.69
2023-04-26T12:39:45.424Z,23.68
2023-04-26T12:40:44.401Z,23.68
2023-04-26T12:41:45.381Z,23.68
2023-04-26T12:42:45.411Z,23.68
2023-04-26T12:43:44.365Z,23.67
2023-04-26T12:44:45.364Z,23.66
2023-04-26T12:45:45.424Z,23.66
2023-04-26T12:46:45.416Z,23.66
2023-04-26T12:47:45.411Z,23.65
2023-04-26T12:48:45.342Z,23.64
2023-04-26T12:49:45.375Z,23.63
2023-04-26T12:50:45.332Z,23.64
2023-04-26T12:51:44.355Z,23.63
2023-04-26T12:52:44.343Z,23.62
2023-04-26T12:53:45.375Z,23.62
2023-04-26T12:54:45.311Z,23.61
2023-04-26T12:55:45.293Z,23.60